Time;durP1;ratioP1;P1;durP2;ratioP2;P2;SDS_P1;SDS_P2;PMS_P1;PMS_P2;Temp;Humidity;BMP_temperature;BMP_pressure;BME280_temperature;BME280_humidity;BME280_pressure;Samples;Min_cycle;Max_cycle;Signal;HPM_P1;HPM_P2
2023/10/11 00:00:33;;;;;;;9.67;4.40;;;13.80;99.90;;;;;;5069243;28;20426;-71
2023/10/11 00:03:14;;;;;;;11.93;4.33;;;13.70;99.90;;;;;;5067903;28;20477;-71
2023/10/11 00:05:40;;;;;;;15.00;4.63;;;13.70;99.90;;;;;;5069107;28;20445;-71
2023/10/11 00:08:13;;;;;;;7.70;4.40;;;13.60;99.90;;;;;;5069209;28;20417;-71
2023/10/11 00:10:44;;;;;;;12.33;4.90;;;13.70;99.90;;;;;;5069175;28;20786;-71
2023/10/11 00:13:11;;;;;;;10.83;4.80;;;13.70;99.90;;;;;;5068978;28;20426;-71
2023/10/11 00:15:37;;;;;;;17.20;5.13;;;13.70;99.90;;;;;;5069167;28;20959;-71
2023/10/11 00:18:03;;;;;;;16.03;5.57;;;13.70;99.90;;;;;;5070112;28;20447;-72
2023/10/11 00:20:35;;;;;;;10.17;4.90;;;13.50;99.90;;;;;;5073362;28;20911;-71
2023/10/11 00:23:00;;;;;;;10.50;5.00;;;13.50;99.90;;;;;;5073222;28;20211;-72
2023/10/11 00:25:27;;;;;;;17.20;5.40;;;13.50;99.90;;;;;;5073103;28;20510;-72
2023/10/11 00:27:54;;;;;;;13.37;5.60;;;13.50;99.90;;;;;;5055151;28;20240;-72
2023/10/11 00:30:21;;;;;;;14.00;5.70;;;13.50;99.90;;;;;;5073362;28;20413;-71
2023/10/11 00:32:47;;;;;;;10.73;5.23;;;13.50;99.90;;;;;;5073619;28;20516;-72
2023/10/11 00:35:18;;;;;;;20.00;5.23;;;13.40;99.90;;;;;;5073568;28;20442;-72
2023/10/11 00:37:51;;;;;;;13.57;5.67;;;13.40;99.90;;;;;;5073644;28;20931;-71
2023/10/11 00:40:25;;;;;;;13.00;5.27;;;13.40;99.90;;;;;;5072251;28;20512;-72
2023/10/11 00:42:51;;;;;;;15.00;6.07;;;13.30;99.90;;;;;;5073417;28;20471;-71
2023/10/11 00:45:17;;;;;;;12.83;5.57;;;13.30;99.90;;;;;;5055251;28;20464;-71
2023/10/11 00:47:45;;;;;;;11.87;5.50;;;13.20;99.90;;;;;;5073457;28;20445;-71
2023/10/11 00:50:14;;;;;;;13.37;4.50;;;13.20;99.90;;;;;;5073402;28;20425;-71
2023/10/11 00:52:45;;;;;;;10.43;5.40;;;13.20;99.90;;;;;;5073130;28;20413;-71
2023/10/11 00:55:17;;;;;;;13.93;6.07;;;13.20;99.90;;;;;;5071597;28;20440;-72
2023/10/11 00:57:49;;;;;;;16.23;6.30;;;13.10;99.90;;;;;;5072595;28;20447;-71
2023/10/11 01:00:16;;;;;;;9.80;5.37;;;13.10;99.90;;;;;;5072560;28;20435;-71
2023/10/11 01:02:45;;;;;;;14.77;6.00;;;13.10;99.90;;;;;;5070740;28;20522;-71
2023/10/11 01:05:12;;;;;;;13.13;6.30;;;13.10;99.90;;;;;;5072074;28;20938;-71
2023/10/11 01:07:40;;;;;;;9.67;5.23;;;13.10;99.90;;;;;;5072244;28;20478;-71
2023/10/11 01:10:07;;;;;;;18.67;5.87;;;13.00;99.90;;;;;;5071091;28;20414;-71
2023/10/11 01:12:38;;;;;;;12.20;5.50;;;13.00;99.90;;;;;;5070806;28;20849;-71
2023/10/11 01:15:11;;;;;;;13.30;6.13;;;13.00;99.90;;;;;;5072073;28;20429;-71
2023/10/11 01:17:38;;;;;;;9.00;4.77;;;12.90;99.90;;;;;;5070949;28;20432;-71
2023/10/11 01:20:13;;;;;;;9.67;4.70;;;12.90;99.90;;;;;;5072358;28;20512;-71
2023/10/11 01:22:43;;;;;;;13.50;5.73;;;12.70;99.90;;;;;;5070709;28;21261;-71
2023/10/11 01:25:12;;;;;;;18.90;6.43;;;12.90;99.90;;;;;;5070425;28;20524;-71
2023/10/11 01:27:39;;;;;;;17.43;5.90;;;13.00;99.90;;;;;;5071868;28;20608;-71
2023/10/11 01:30:09;;;;;;;12.97;5.10;;;13.00;99.90;;;;;;5071486;28;20420;-71
2023/10/11 01:32:37;;;;;;;16.27;7.00;;;13.00;99.90;;;;;;5071418;28;20466;-71
2023/10/11 01:35:04;;;;;;;11.20;5.20;;;13.00;99.90;;;;;;5071509;28;20524;-71
2023/10/11 01:37:36;;;;;;;14.10;5.43;;;12.90;99.90;;;;;;5070296;28;20428;-71
2023/10/11 01:40:07;;;;;;;14.57;5.13;;;13.00;99.90;;;;;;5070257;28;20938;-72
2023/10/11 01:42:33;;;;;;;14.30;5.60;;;13.00;99.90;;;;;;5053897;28;20968;-72
2023/10/11 01:45:00;;;;;;;12.27;5.00;;;13.00;99.90;;;;;;5069935;28;21096;-71
2023/10/11 01:47:26;;;;;;;18.47;7.50;;;13.00;99.90;;;;;;5070336;28;20450;-71
2023/10/11 01:49:52;;;;;;;13.13;5.90;;;13.00;99.90;;;;;;5071307;28;20464;-71
2023/10/11 01:52:18;;;;;;;15.83;4.70;;;13.00;99.90;;;;;;5071055;28;20183;-72
2023/10/11 01:54:44;;;;;;;13.97;5.87;;;12.90;99.90;;;;;;5071039;28;20483;-72
2023/10/11 01:57:10;;;;;;;16.13;5.30;;;13.00;99.90;;;;;;5069744;28;20222;-71
2023/10/11 01:59:35;;;;;;;12.13;4.57;;;13.00;99.90;;;;;;5069577;28;20195;-72
2023/10/11 02:02:03;;;;;;;20.23;5.50;;;13.10;99.90;;;;;;5070641;28;20487;-71
2023/10/11 02:04:30;;;;;;;17.00;5.87;;;13.10;99.90;;;;;;5070995;28;20171;-71
2023/10/11 02:06:57;;;;;;;12.20;5.90;;;13.10;99.90;;;;;;5070610;28;20437;-71
2023/10/11 02:09:23;;;;;;;9.90;5.60;;;13.10;99.90;;;;;;5070556;28;20425;-71
2023/10/11 02:11:54;;;;;;;11.23;4.97;;;13.10;99.90;;;;;;5070698;28;20806;-71
2023/10/11 02:14:24;;;;;;;12.17;5.70;;;13.00;99.90;;;;;;5069391;28;20425;-71
2023/10/11 02:16:50;;;;;;;11.70;4.53;;;13.00;99.90;;;;;;5070612;28;20493;-71
2023/10/11 02:19:15;;;;;;;14.10;5.60;;;13.00;99.90;;;;;;5070672;28;20429;-71
2023/10/11 02:21:44;;;;;;;18.53;5.40;;;13.00;99.90;;;;;;5070204;28;20187;-71
2023/10/11 02:24:16;;;;;;;11.67;5.23;;;13.00;99.90;;;;;;5068851;28;20229;-71
2023/10/11 02:26:49;;;;;;;12.00;4.90;;;13.00;99.90;;;;;;5070182;28;20438;-71
2023/10/11 02:29:25;;;;;;;7.83;4.53;;;12.90;99.90;;;;;;5070329;28;20936;-71
2023/10/11 02:31:52;;;;;;;13.57;5.63;;;12.90;99.90;;;;;;5068754;28;20458;-71
2023/10/11 02:34:18;;;;;;;13.37;5.27;;;12.90;99.90;;;;;;5068786;28;20432;-71
2023/10/11 02:36:55;;;;;;;13.83;5.40;;;12.80;99.90;;;;;;5069972;28;20867;-71
2023/10/11 02:39:20;;;;;;;12.47;5.70;;;12.80;99.90;;;;;;5070370;28;20421;-71
2023/10/11 02:41:49;;;;;;;14.57;5.63;;;12.80;99.90;;;;;;5067637;28;20483;-71
2023/10/11 02:44:15;;;;;;;7.90;4.93;;;12.70;99.90;;;;;;5070227;28;20182;-71
2023/10/11 02:46:44;;;;;;;20.60;6.07;;;12.70;99.90;;;;;;5070296;28;20437;-71
2023/10/11 02:49:19;;;;;;;11.97;5.60;;;12.70;99.90;;;;;;5070351;28;20178;-71
2023/10/11 02:51:53;;;;;;;12.40;5.80;;;12.70;99.90;;;;;;5070451;28;20458;-71
2023/10/11 02:54:24;;;;;;;11.10;5.10;;;12.60;99.90;;;;;;5070251;28;20471;-71
2023/10/11 02:56:52;;;;;;;15.70;5.60;;;12.50;99.90;;;;;;5068726;28;20480;-71
2023/10/11 02:59:19;;;;;;;15.30;5.80;;;12.40;99.90;;;;;;5070160;28;20410;-71
2023/10/11 03:02:03;;;;;;;17.30;5.00;;;12.50;99.90;;;;;;5068296;28;20437;-71
2023/10/11 03:04:38;;;;;;;12.83;6.40;;;12.40;99.90;;;;;;5069791;28;20412;-71
2023/10/11 03:07:04;;;;;;;9.93;5.27;;;12.30;99.90;;;;;;5070118;28;20441;-71
2023/10/11 03:09:33;;;;;;;18.23;6.30;;;12.30;99.90;;;;;;5069843;28;20947;-71
2023/10/11 03:12:09;;;;;;;15.20;6.40;;;12.30;99.90;;;;;;5069758;28;20217;-71
2023/10/11 03:14:41;;;;;;;15.03;5.73;;;12.30;99.90;;;;;;5069855;28;20454;-71
2023/10/11 03:17:13;;;;;;;14.50;5.40;;;12.30;99.90;;;;;;5068320;28;20417;-71
2023/10/11 03:19:42;;;;;;;14.40;5.53;;;12.20;99.90;;;;;;5069663;28;20432;-71
2023/10/11 03:22:20;;;;;;;9.50;5.40;;;12.20;99.90;;;;;;5069287;28;20452;-71
2023/10/11 03:24:53;;;;;;;16.40;5.60;;;12.20;99.90;;;;;;5067917;28;20520;-71
2023/10/11 03:27:20;;;;;;;17.97;5.63;;;12.10;99.90;;;;;;5068980;28;20708;-71
2023/10/11 03:29:46;;;;;;;12.13;5.67;;;12.00;99.90;;;;;;5068594;28;20470;-71
2023/10/11 03:32:12;;;;;;;11.93;4.93;;;12.00;99.90;;;;;;5067257;28;20943;-71
2023/10/11 03:34:38;;;;;;;9.13;5.00;;;11.90;99.90;;;;;;5067126;28;20191;-71
2023/10/11 03:37:10;;;;;;;13.83;5.97;;;11.90;99.90;;;;;;5069056;28;20803;-72
2023/10/11 03:47:59;;;;;;;14.47;6.03;;;11.60;99.90;;;;;;5069296;28;20400;-72
2023/10/11 03:50:33;;;;;;;18.80;6.40;;;11.70;99.90;;;;;;5068895;28;20428;-72
2023/10/11 03:53:07;;;;;;;8.70;5.00;;;11.60;99.90;;;;;;5068666;28;20197;-72
2023/10/11 03:55:33;;;;;;;13.40;5.10;;;11.70;99.90;;;;;;5068964;28;20440;-72
2023/10/11 03:57:58;;;;;;;10.93;6.03;;;11.50;99.90;;;;;;5069161;28;20424;-72
2023/10/11 04:00:28;;;;;;;12.83;5.47;;;11.60;99.90;;;;;;5068175;28;20457;-72
2023/10/11 04:02:58;;;;;;;10.43;5.20;;;11.70;99.90;;;;;;5069077;28;20241;-72
2023/10/11 04:05:35;;;;;;;19.60;5.80;;;11.60;99.90;;;;;;5069110;28;20507;-72
2023/10/11 04:08:05;;;;;;;18.00;5.83;;;11.70;99.90;;;;;;5069192;28;20416;-71
2023/10/11 04:10:46;;;;;;;14.93;5.30;;;11.70;99.90;;;;;;5069443;28;20407;-71
2023/10/11 04:13:15;;;;;;;12.43;6.07;;;11.70;99.90;;;;;;5067878;28;20428;-71
2023/10/11 04:15:49;;;;;;;14.17;5.60;;;11.70;99.90;;;;;;5067619;28;20440;-71
2023/10/11 04:18:20;;;;;;;10.70;5.40;;;11.70;99.90;;;;;;5069292;28;20829;-71
2023/10/11 04:21:13;;;;;;;11.83;5.63;;;11.60;99.90;;;;;;5069278;28;20425;-72
2023/10/11 04:23:40;;;;;;;13.90;5.73;;;11.50;99.90;;;;;;5068115;28;20539;-72
2023/10/11 04:26:26;;;;;;;17.20;6.43;;;11.60;99.90;;;;;;5067569;28;20450;-72
2023/10/11 04:28:52;;;;;;;18.00;5.80;;;11.50;99.90;;;;;;5069260;28;20419;-71
2023/10/11 04:31:28;;;;;;;14.23;5.23;;;11.40;99.90;;;;;;5069089;28;20413;-72
2023/10/11 04:33:54;;;;;;;17.13;5.53;;;11.50;99.90;;;;;;5069089;28;20972;-72
2023/10/11 04:36:20;;;;;;;9.57;5.97;;;11.50;99.90;;;;;;5068858;28;20487;-72
2023/10/11 04:38:50;;;;;;;11.30;5.53;;;11.60;99.90;;;;;;5051013;28;20436;-71
2023/10/11 04:41:18;;;;;;;16.20;5.60;;;11.70;99.90;;;;;;5067659;28;20859;-72
2023/10/11 04:44:04;;;;;;;12.93;5.20;;;11.60;99.90;;;;;;5067635;28;20461;-71
2023/10/11 04:46:31;;;;;;;21.90;5.43;;;11.60;99.90;;;;;;5068902;28;20810;-72
2023/10/11 04:49:17;;;;;;;15.30;5.60;;;11.60;99.90;;;;;;5067668;28;20420;-71
2023/10/11 04:51:45;;;;;;;15.00;4.70;;;11.60;99.90;;;;;;5068744;28;20436;-72
2023/10/11 04:54:13;;;;;;;22.87;6.63;;;11.70;99.90;;;;;;5068979;28;20428;-71
2023/10/11 04:59:36;;;;;;;11.07;5.30;;;11.60;99.90;;;;;;5068998;28;20906;-71
2023/10/11 05:02:08;;;;;;;18.60;5.30;;;11.50;99.90;;;;;;5068635;28;20545;-71
2023/10/11 05:04:41;;;;;;;15.63;5.77;;;11.50;99.90;;;;;;5067641;28;20472;-71
2023/10/11 05:07:07;;;;;;;13.00;5.17;;;11.50;99.90;;;;;;5072464;28;20512;-71
2023/10/11 05:09:41;;;;;;;14.80;5.90;;;11.50;99.90;;;;;;5072213;28;20499;-71
2023/10/11 05:12:19;;;;;;;19.53;6.57;;;11.30;99.90;;;;;;5070401;28;20461;-72
2023/10/11 05:19:45;;;;;;;14.70;5.10;;;11.50;99.90;;;;;;5071273;28;20425;-71
2023/10/11 05:30:07;;;;;;;15.20;6.03;;;11.40;99.90;;;;;;5072670;28;20435;-71
2023/10/11 05:32:50;;;;;;;14.77;5.80;;;11.40;99.90;;;;;;5071431;28;20959;-70
2023/10/11 05:51:31;;;;;;;12.23;6.00;;;11.30;99.90;;;;;;5072156;28;20531;-71
2023/10/11 05:53:59;;;;;;;14.90;5.90;;;11.20;99.90;;;;;;5071994;28;21210;-72
2023/10/11 05:56:25;;;;;;;14.83;5.50;;;11.30;99.90;;;;;;5071815;28;20796;-72
2023/10/11 05:58:52;;;;;;;15.03;6.03;;;11.30;99.90;;;;;;5071748;28;20948;-71
2023/10/11 06:01:22;;;;;;;16.93;6.17;;;11.40;99.90;;;;;;5071783;28;20475;-71
2023/10/11 06:03:51;;;;;;;18.10;5.87;;;11.50;99.90;;;;;;5054211;28;20474;-71
2023/10/11 06:06:23;;;;;;;12.47;5.87;;;11.40;99.90;;;;;;5071836;28;20878;-71
2023/10/11 06:08:57;;;;;;;11.40;6.10;;;11.50;99.90;;;;;;5071908;28;20720;-71
2023/10/11 06:11:29;;;;;;;14.87;5.23;;;11.50;99.90;;;;;;5071679;28;20423;-71
2023/10/11 06:14:04;;;;;;;15.80;5.80;;;11.50;99.90;;;;;;5071600;28;20417;-71
2023/10/11 06:16:37;;;;;;;12.30;4.83;;;11.60;99.90;;;;;;5071051;28;20439;-71
2023/10/11 06:19:16;;;;;;;13.50;5.67;;;11.60;99.90;;;;;;5071362;28;20454;-71
2023/10/11 06:21:58;;;;;;;12.53;5.80;;;11.60;99.90;;;;;;5069656;28;20500;-71
2023/10/11 06:24:33;;;;;;;12.37;4.87;;;11.70;99.90;;;;;;5070924;28;20429;-71
2023/10/11 06:29:53;;;;;;;17.17;5.40;;;11.80;99.90;;;;;;5070961;28;20426;-71
2023/10/11 06:32:21;;;;;;;11.23;5.30;;;11.90;99.90;;;;;;5070744;28;20401;-70
2023/10/11 06:34:47;;;;;;;19.40;5.80;;;12.00;99.90;;;;;;5070571;28;20520;-71
2023/10/11 06:37:18;;;;;;;11.90;5.50;;;12.20;99.90;;;;;;5070630;28;20805;-70
2023/10/11 06:42:16;;;;;;;21.43;6.10;;;12.40;99.90;;;;;;5068447;28;21103;-71
2023/10/11 06:44:47;;;;;;;10.60;5.70;;;12.60;99.90;;;;;;5068994;28;20875;-71
2023/10/11 06:47:13;;;;;;;16.03;5.43;;;12.50;99.90;;;;;;5067521;28;20420;-70
2023/10/11 06:49:47;;;;;;;17.43;5.57;;;12.60;99.90;;;;;;5068995;28;20410;-71
2023/10/11 06:52:19;;;;;;;15.30;7.60;;;12.50;99.90;;;;;;5067710;28;20903;-71
2023/10/11 06:54:47;;;;;;;11.33;5.57;;;12.70;99.90;;;;;;5069114;28;20515;-70
2023/10/11 06:57:17;;;;;;;16.80;5.70;;;12.80;99.90;;;;;;5068938;28;20444;-71
2023/10/11 06:59:43;;;;;;;15.40;5.57;;;13.00;99.90;;;;;;5069423;28;20424;-71
2023/10/11 07:02:17;;;;;;;14.97;5.80;;;13.00;99.90;;;;;;5069636;28;20495;-71
2023/10/11 07:04:52;;;;;;;12.40;6.07;;;13.10;99.90;;;;;;5070115;28;20429;-71
2023/10/11 07:07:18;;;;;;;10.70;5.77;;;13.10;99.90;;;;;;5070061;28;20416;-71
2023/10/11 07:09:56;;;;;;;32.13;5.63;;;13.30;99.90;;;;;;5070054;28;20525;-70
2023/10/11 07:12:28;;;;;;;14.50;5.90;;;13.40;99.90;;;;;;5068652;28;20425;-71
2023/10/11 07:14:57;;;;;;;12.73;5.63;;;13.40;99.90;;;;;;5068554;28;20508;-71
2023/10/11 07:17:32;;;;;;;9.23;4.97;;;13.50;99.90;;;;;;5069928;28;20779;-71
2023/10/11 07:19:57;;;;;;;17.53;6.03;;;13.60;99.90;;;;;;5069898;28;20443;-71
2023/10/11 07:22:26;;;;;;;13.53;5.87;;;13.70;99.90;;;;;;5069732;28;20465;-71
2023/10/11 07:24:55;;;;;;;17.50;5.83;;;13.90;99.90;;;;;;5068283;28;20199;-71
2023/10/11 07:27:37;;;;;;;12.70;5.10;;;14.00;99.90;;;;;;5069435;28;20420;-71
2023/10/11 07:30:06;;;;;;;24.20;6.77;;;14.00;99.90;;;;;;5070165;28;20967;-71
2023/10/11 07:32:36;;;;;;;16.40;6.40;;;14.10;99.90;;;;;;5069691;28;20425;-71
2023/10/11 07:35:08;;;;;;;18.63;6.80;;;14.10;99.90;;;;;;5069605;28;20452;-71
2023/10/11 07:37:35;;;;;;;14.97;6.43;;;14.20;99.90;;;;;;5069488;28;20483;-71
2023/10/11 07:40:09;;;;;;;19.90;6.90;;;14.20;99.90;;;;;;5068009;28;20429;-71
2023/10/11 07:42:38;;;;;;;12.47;6.60;;;14.30;99.90;;;;;;5069378;28;20465;-71
2023/10/11 07:45:12;;;;;;;18.13;6.40;;;14.40;99.90;;;;;;5069368;28;20528;-71
2023/10/11 07:47:45;;;;;;;18.80;6.10;;;14.40;99.90;;;;;;5069280;28;20442;-71
2023/10/11 07:50:14;;;;;;;10.60;5.30;;;14.60;99.90;;;;;;5067805;28;20506;-70
2023/10/11 07:52:41;;;;;;;14.80;6.07;;;14.70;99.90;;;;;;5069564;28;20429;-71
2023/10/11 07:55:12;;;;;;;15.67;5.67;;;14.90;99.90;;;;;;5067992;28;20445;-71
2023/10/11 07:57:44;;;;;;;11.13;5.53;;;15.10;99.90;;;;;;5069203;28;20842;-71
2023/10/11 08:00:17;;;;;;;21.60;5.13;;;15.20;99.90;;;;;;5051839;28;20496;-71
2023/10/11 08:02:58;;;;;;;17.70;5.27;;;15.50;99.90;;;;;;5068945;28;20481;-71
2023/10/11 08:05:25;;;;;;;16.73;5.37;;;15.70;99.90;;;;;;5069164;28;20435;-71
2023/10/11 08:07:53;;;;;;;12.50;5.43;;;15.90;99.90;;;;;;5069136;28;20805;-71
2023/10/11 08:10:33;;;;;;;17.07;6.03;;;16.00;99.90;;;;;;5068947;28;20424;-71
2023/10/11 08:13:03;;;;;;;16.20;5.00;;;16.20;99.90;;;;;;5068784;28;20497;-71
2023/10/11 08:15:29;;;;;;;13.90;6.17;;;16.30;99.90;;;;;;5067608;28;20562;-71
2023/10/11 08:17:55;;;;;;;12.70;6.20;;;16.40;99.90;;;;;;5067934;28;20422;-71
2023/10/11 08:20:24;;;;;;;18.23;6.60;;;16.60;99.90;;;;;;5069049;28;20527;-71
2023/10/11 08:22:55;;;;;;;15.73;6.20;;;16.60;99.90;;;;;;5051046;28;20239;-71
2023/10/11 08:25:26;;;;;;;18.23;5.17;;;16.80;99.90;;;;;;5068891;28;20861;-71
2023/10/11 08:28:08;;;;;;;12.33;5.50;;;16.90;99.90;;;;;;5067558;28;20423;-71
2023/10/11 08:30:37;;;;;;;15.47;5.30;;;17.10;99.90;;;;;;5068960;28;20927;-71
2023/10/11 08:33:04;;;;;;;11.23;5.00;;;17.20;99.90;;;;;;5068787;28;20420;-71
2023/10/11 08:35:32;;;;;;;17.00;5.50;;;17.30;99.90;;;;;;5067419;28;20463;-71
2023/10/11 08:38:04;;;;;;;17.33;6.40;;;17.40;99.90;;;;;;5068959;28;20430;-71
2023/10/11 08:40:36;;;;;;;15.93;5.80;;;17.60;99.90;;;;;;5072208;28;20914;-71
2023/10/11 08:43:03;;;;;;;13.00;4.63;;;17.80;99.90;;;;;;5072906;28;20458;-71
2023/10/11 08:45:33;;;;;;;15.43;5.97;;;17.90;99.90;;;;;;5072889;28;20437;-73
2023/10/11 08:48:06;;;;;;;17.60;6.60;;;18.20;99.90;;;;;;5072816;28;20425;-72
2023/10/11 08:50:34;;;;;;;14.47;6.40;;;18.40;99.90;;;;;;5072909;28;21251;-72
2023/10/11 08:53:07;;;;;;;15.37;5.93;;;18.60;99.90;;;;;;5072805;28;20506;-72
2023/10/11 08:55:35;;;;;;;12.07;6.17;;;19.00;99.90;;;;;;5072788;28;20487;-72
2023/10/11 08:58:04;;;;;;;15.17;5.80;;;19.40;99.90;;;;;;5072765;28;20515;-72
2023/10/11 09:00:31;;;;;;;16.73;5.20;;;20.10;99.90;;;;;;5072509;28;20477;-71
2023/10/11 09:03:13;;;;;;;20.23;6.33;;;20.80;99.90;;;;;;5072438;28;20557;-71
2023/10/11 09:05:42;;;;;;;22.07;6.93;;;21.30;99.90;;;;;;5071093;28;20441;-71
2023/10/11 09:08:30;;;;;;;25.73;6.60;;;22.10;98.90;;;;;;5072503;28;20428;-71
2023/10/11 09:11:35;;;;;;;17.70;5.80;;;22.60;95.70;;;;;;5072402;28;20456;-72
2023/10/11 09:14:22;;;;;;;11.37;5.33;;;22.90;92.70;;;;;;5072415;28;20516;-72
2023/10/11 09:16:49;;;;;;;9.90;5.10;;;23.20;92.20;;;;;;5072307;28;20441;-71
2023/10/11 09:19:19;;;;;;;17.07;6.03;;;23.70;90.90;;;;;;5072159;28;20428;-71
2023/10/11 09:22:04;;;;;;;19.07;7.10;;;23.80;91.50;;;;;;5071903;28;20483;-72
2023/10/11 09:24:41;;;;;;;11.20;5.40;;;23.80;88.30;;;;;;5071958;28;20427;-72
2023/10/11 09:29:47;;;;;;;16.33;6.07;;;24.30;90.10;;;;;;5071619;28;20903;-71
2023/10/11 09:32:14;;;;;;;14.50;7.03;;;24.50;87.30;;;;;;5070263;28;20430;-71
2023/10/11 09:34:42;;;;;;;16.53;6.00;;;24.90;85.00;;;;;;5071851;28;20475;-71
2023/10/11 09:37:12;;;;;;;21.73;6.43;;;25.20;85.50;;;;;;5071869;28;20423;-71
2023/10/11 09:39:38;;;;;;;19.90;6.63;;;25.60;82.60;;;;;;5071972;28;20458;-72
2023/10/11 09:42:04;;;;;;;25.70;6.40;;;25.80;80.80;;;;;;5071653;28;20439;-72
2023/10/11 09:44:40;;;;;;;19.70;6.63;;;26.10;81.80;;;;;;5069815;28;20795;-72
2023/10/11 09:47:07;;;;;;;13.40;5.70;;;26.70;79.70;;;;;;5053184;28;20802;-72
2023/10/11 09:49:42;;;;;;;15.20;6.30;;;27.00;83.70;;;;;;5070944;28;20417;-72
2023/10/11 09:52:15;;;;;;;14.27;5.80;;;27.30;74.80;;;;;;5071048;28;20425;-72
2023/10/11 09:54:41;;;;;;;14.83;4.87;;;27.40;71.10;;;;;;5069946;28;20441;-72
2023/10/11 09:57:29;;;;;;;19.10;4.70;;;27.90;64.10;;;;;;5070896;28;20452;-72
2023/10/11 10:00:11;;;;;;;16.47;4.80;;;28.30;56.00;;;;;;5069654;28;20523;-72
2023/10/11 10:02:44;;;;;;;14.40;3.83;;;28.80;57.30;;;;;;5071076;28;20526;-71
2023/10/11 10:05:11;;;;;;;12.43;4.50;;;28.60;56.90;;;;;;5071333;28;20436;-71
2023/10/11 10:10:07;;;;;;;15.53;4.33;;;29.00;50.40;;;;;;5071448;28;20452;-71
2023/10/11 10:12:43;;;;;;;13.20;4.60;;;29.70;51.90;;;;;;5071457;28;20448;-71
2023/10/11 10:15:12;;;;;;;18.33;4.73;;;29.90;50.60;;;;;;5071205;28;20907;-72
2023/10/11 10:17:38;;;;;;;17.57;4.80;;;30.20;48.80;;;;;;5071093;28;20929;-72
2023/10/11 10:20:43;;;;;;;25.93;5.10;;;30.30;47.00;;;;;;5070874;28;20413;-71
2023/10/11 10:23:32;;;;;;;20.33;4.40;;;30.30;44.70;;;;;;5069598;28;20468;-72
2023/10/11 10:26:07;;;;;;;12.93;4.43;;;30.40;46.30;;;;;;5071076;28;20919;-71
2023/10/11 10:28:35;;;;;;;16.27;3.90;;;30.50;43.10;;;;;;5070955;28;20431;-71
2023/10/11 10:31:12;;;;;;;15.00;4.90;;;30.50;44.10;;;;;;5069367;28;20409;-72
2023/10/11 10:33:38;;;;;;;14.00;5.37;;;30.50;42.70;;;;;;5070701;28;20513;-72
2023/10/11 10:36:28;;;;;;;16.47;4.43;;;31.00;46.90;;;;;;5070354;28;20446;-72
2023/10/11 10:39:00;;;;;;;21.00;4.80;;;30.80;45.20;;;;;;5069206;28;20954;-72
2023/10/11 10:41:31;;;;;;;16.53;5.00;;;31.10;41.90;;;;;;5070793;28;20990;-72
2023/10/11 10:44:32;;;;;;;12.30;4.17;;;31.00;41.40;;;;;;5070580;28;20480;-70
2023/10/11 10:46:59;;;;;;;28.07;5.17;;;30.80;40.90;;;;;;4972745;28;20452;-70
2023/10/11 10:49:47;;;;;;;18.17;5.40;;;31.00;45.10;;;;;;5054642;28;20429;-71
2023/10/11 10:52:30;;;;;;;21.77;4.60;;;31.20;41.20;;;;;;5070780;28;20432;-71
2023/10/11 10:55:07;;;;;;;22.03;4.17;;;30.70;41.90;;;;;;5070616;28;20444;-72
2023/10/11 10:57:37;;;;;;;10.10;4.80;;;30.80;43.30;;;;;;5070489;28;20417;-72
2023/10/11 11:00:30;;;;;;;16.87;4.30;;;30.80;41.50;;;;;;5070175;28;20421;-73
2023/10/11 11:02:56;;;;;;;18.53;5.07;;;31.00;43.10;;;;;;5068059;28;20500;-71
2023/10/11 11:05:29;;;;;;;21.20;4.83;;;30.70;43.50;;;;;;5069612;28;20437;-72
2023/10/11 11:08:15;;;;;;;18.10;5.30;;;30.50;43.20;;;;;;5068570;28;20183;-72
2023/10/11 11:10:54;;;;;;;22.33;4.53;;;30.40;41.40;;;;;;5069637;28;20413;-72
2023/10/11 11:13:25;;;;;;;12.50;4.67;;;30.20;44.40;;;;;;5069541;28;20429;-71
2023/10/11 11:15:57;;;;;;;9.50;4.10;;;30.10;42.10;;;;;;5069485;28;20449;-72
2023/10/11 11:18:32;;;;;;;20.87;3.97;;;29.90;44.60;;;;;;5069766;28;20425;-71
2023/10/11 11:21:17;;;;;;;15.00;5.23;;;29.90;43.80;;;;;;5069973;28;20423;-72
2023/10/11 11:23:44;;;;;;;13.33;4.63;;;29.50;43.10;;;;;;5069819;28;20898;-71
2023/10/11 11:26:15;;;;;;;18.17;5.13;;;29.50;44.70;;;;;;5069921;28;20436;-71
2023/10/11 11:28:48;;;;;;;8.27;4.07;;;29.10;43.50;;;;;;5069877;28;20826;-71
2023/10/11 11:31:30;;;;;;;12.97;5.07;;;29.10;43.10;;;;;;5069884;28;20425;-72
2023/10/11 11:34:17;;;;;;;19.10;4.80;;;28.70;42.80;;;;;;5069784;28;20413;-72
2023/10/11 11:36:53;;;;;;;14.97;4.90;;;28.70;44.20;;;;;;5069130;28;20850;-71
2023/10/11 11:41:58;;;;;;;19.67;4.97;;;28.10;45.60;;;;;;5068613;28;20406;-71
2023/10/11 11:44:24;;;;;;;20.33;5.20;;;27.90;50.70;;;;;;5068695;28;20997;-71
2023/10/11 11:46:51;;;;;;;15.20;4.73;;;28.10;48.80;;;;;;5050705;28;20451;-71
2023/10/11 11:49:23;;;;;;;13.33;4.63;;;28.10;47.40;;;;;;5068771;28;20421;-73
2023/10/11 11:51:51;;;;;;;13.07;4.80;;;28.00;48.90;;;;;;5068709;28;20498;-72
2023/10/11 11:54:19;;;;;;;17.53;4.20;;;28.00;45.90;;;;;;5068713;28;21307;-71
2023/10/11 11:56:45;;;;;;;11.47;4.70;;;27.80;47.20;;;;;;5068551;28;20551;-71
2023/10/11 11:59:21;;;;;;;10.20;3.90;;;27.80;48.40;;;;;;5068553;28;20436;-71
2023/10/11 12:01:52;;;;;;;14.07;4.90;;;27.70;51.00;;;;;;5068402;28;20444;-71
2023/10/11 12:04:32;;;;;;;9.60;4.17;;;27.60;49.00;;;;;;5068550;28;20405;-72
2023/10/11 12:07:04;;;;;;;15.97;4.50;;;27.50;47.20;;;;;;5068410;28;20424;-72
2023/10/11 12:09:34;;;;;;;12.77;4.57;;;27.40;47.60;;;;;;5068472;28;20417;-71
2023/10/11 12:12:05;;;;;;;14.93;4.73;;;27.40;47.80;;;;;;5068432;28;20405;-71
2023/10/11 12:14:38;;;;;;;17.37;4.23;;;27.30;46.30;;;;;;5066928;28;21070;-71
2023/10/11 12:17:09;;;;;;;13.80;3.83;;;27.30;47.50;;;;;;5067332;28;20966;-71
2023/10/11 12:19:38;;;;;;;15.73;4.40;;;27.50;47.20;;;;;;5068666;28;20437;-72
2023/10/11 12:22:04;;;;;;;12.30;4.27;;;27.40;47.80;;;;;;5067018;28;20448;-72
2023/10/11 12:24:31;;;;;;;18.23;4.70;;;27.40;47.20;;;;;;5066861;28;20441;-71
2023/10/11 12:26:59;;;;;;;18.63;3.97;;;27.40;45.60;;;;;;5068317;28;20225;-70
2023/10/11 12:29:26;;;;;;;13.43;4.13;;;27.50;44.00;;;;;;5068246;28;20501;-72
2023/10/11 12:31:55;;;;;;;17.20;4.17;;;27.50;46.40;;;;;;5068272;28;20491;-70
2023/10/11 12:34:27;;;;;;;10.80;3.83;;;27.50;45.50;;;;;;5068097;28;20425;-72
2023/10/11 12:36:53;;;;;;;16.30;4.53;;;27.70;45.70;;;;;;5066692;28;20816;-71
2023/10/11 12:39:24;;;;;;;13.67;4.57;;;27.50;45.30;;;;;;5068219;28;20417;-71
2023/10/11 12:41:51;;;;;;;14.80;4.37;;;27.40;45.30;;;;;;5068061;28;20425;-71
2023/10/11 12:44:20;;;;;;;10.90;4.00;;;27.30;46.50;;;;;;5067898;28;20483;-71
2023/10/11 12:46:49;;;;;;;17.70;4.60;;;27.30;46.10;;;;;;5068038;28;20517;-71
2023/10/11 12:49:18;;;;;;;17.33;4.27;;;27.30;47.10;;;;;;5068018;28;20928;-71
2023/10/11 12:51:46;;;;;;;11.83;3.57;;;27.30;50.00;;;;;;5066691;28;20424;-71
2023/10/11 12:54:16;;;;;;;10.73;3.60;;;27.20;49.10;;;;;;5066781;28;20498;-71
2023/10/11 12:56:42;;;;;;;20.30;4.57;;;27.30;47.40;;;;;;5067690;28;20480;-71
2023/10/11 12:59:15;;;;;;;14.60;3.90;;;27.20;48.20;;;;;;5067702;28;20420;-71
2023/10/11 13:01:50;;;;;;;11.57;3.73;;;27.20;47.70;;;;;;5067617;28;20446;-71
2023/10/11 13:04:30;;;;;;;11.73;4.27;;;27.20;48.80;;;;;;5067817;28;20456;-71
2023/10/11 13:06:59;;;;;;;11.03;4.90;;;27.10;48.10;;;;;;5067599;28;21099;-71
2023/10/11 13:09:27;;;;;;;6.17;3.83;;;27.10;45.90;;;;;;5067569;28;20421;-71
2023/10/11 13:11:56;;;;;;;12.90;3.30;;;27.00;46.60;;;;;;5066137;28;20479;-71
2023/10/11 13:14:22;;;;;;;11.60;4.67;;;27.00;47.70;;;;;;5067548;28;20421;-71
2023/10/11 13:16:51;;;;;;;7.10;3.40;;;27.10;48.10;;;;;;5067503;28;20487;-71
2023/10/11 13:19:18;;;;;;;15.00;4.63;;;27.10;47.40;;;;;;5067574;28;20256;-71
2023/10/11 13:21:47;;;;;;;10.13;4.40;;;27.10;46.40;;;;;;5067476;28;20421;-72
2023/10/11 13:24:16;;;;;;;11.63;4.20;;;27.20;47.40;;;;;;5067344;28;20468;-72
2023/10/11 13:26:46;;;;;;;10.70;4.80;;;27.10;46.70;;;;;;5067787;28;20433;-72
2023/10/11 13:29:18;;;;;;;8.10;3.97;;;27.20;46.90;;;;;;5071065;28;20402;-72
2023/10/11 13:31:48;;;;;;;15.33;5.10;;;27.30;49.10;;;;;;5071040;28;20950;-71
2023/10/11 13:34:14;;;;;;;16.60;4.10;;;27.40;47.70;;;;;;5071368;28;20424;-72
2023/10/11 13:36:41;;;;;;;11.17;4.20;;;27.30;47.70;;;;;;5070743;28;20436;-71
2023/10/11 13:39:25;;;;;;;7.67;3.57;;;27.30;47.60;;;;;;5070864;28;20452;-72
2023/10/11 13:41:55;;;;;;;11.17;3.87;;;27.30;48.90;;;;;;5070782;28;20413;-70
2023/10/11 13:44:25;;;;;;;15.93;3.83;;;27.20;48.70;;;;;;5069180;28;20840;-71
2023/10/11 13:46:53;;;;;;;11.40;3.70;;;27.30;48.50;;;;;;5070460;28;20440;-72
2023/10/11 13:49:25;;;;;;;14.60;3.90;;;27.20;49.10;;;;;;5070564;28;20449;-71
2023/10/11 13:51:52;;;;;;;11.63;3.43;;;27.30;48.20;;;;;;5070575;28;20861;-72